Time;durP1;ratioP1;P1;durP2;ratioP2;P2;SDS_P1;SDS_P2;PMS_P1;PMS_P2;Temp;Humidity;BMP_temperature;BMP_pressure;BME280_temperature;BME280_humidity;BME280_pressure;Samples;Min_cycle;Max_cycle;Signal;HPM_P1;HPM_P2
2023/04/29 00:00:07;;;;;;;40.95;26.30;;;10.10;99.90;;;;;;5057188;28;20049;-85
2023/04/29 00:02:33;;;;;;;46.28;27.73;;;10.10;99.90;;;;;;5051351;28;20077;-85
2023/04/29 00:04:59;;;;;;;43.97;25.70;;;10.00;99.90;;;;;;5052141;28;20439;-84
2023/04/29 00:07:24;;;;;;;42.58;27.40;;;10.00;99.90;;;;;;5052077;28;20083;-85
2023/04/29 00:09:50;;;;;;;42.83;25.00;;;10.00;99.90;;;;;;5052307;28;20033;-84
2023/04/29 00:12:15;;;;;;;45.35;25.75;;;10.00;99.90;;;;;;5051988;28;20047;-84
2023/04/29 00:14:42;;;;;;;40.78;25.35;;;10.00;99.90;;;;;;5051803;28;20051;-85
2023/04/29 00:17:08;;;;;;;41.60;25.80;;;10.00;99.90;;;;;;5051022;28;20071;-84
2023/04/29 00:19:33;;;;;;;40.17;25.70;;;10.00;99.90;;;;;;5058695;28;20120;-85
2023/04/29 00:22:00;;;;;;;48.00;27.02;;;10.00;99.90;;;;;;5059037;28;20541;-84
2023/04/29 00:24:26;;;;;;;39.67;26.20;;;10.00;99.90;;;;;;5056120;28;20091;-84
2023/04/29 00:26:51;;;;;;;41.42;26.17;;;10.00;99.90;;;;;;5051370;28;20499;-85
2023/04/29 00:29:17;;;;;;;40.15;23.30;;;10.00;99.90;;;;;;5058889;28;20126;-85
2023/04/29 00:31:44;;;;;;;39.88;24.83;;;10.00;99.90;;;;;;5051113;28;20049;-85
2023/04/29 00:34:09;;;;;;;38.03;24.70;;;9.90;99.90;;;;;;5053413;28;20040;-85
2023/04/29 00:36:35;;;;;;;42.70;26.40;;;9.90;99.90;;;;;;5059792;28;20040;-86
2023/04/29 00:39:01;;;;;;;39.15;23.02;;;9.90;99.90;;;;;;5057310;28;20041;-85
2023/04/29 00:41:28;;;;;;;38.15;23.98;;;9.90;99.90;;;;;;5055080;28;20418;-85
2023/04/29 00:43:54;;;;;;;35.80;22.50;;;9.90;99.90;;;;;;5054576;28;20418;-85
2023/04/29 00:46:19;;;;;;;35.67;22.48;;;9.90;99.90;;;;;;5051368;28;20116;-84
2023/04/29 00:48:45;;;;;;;45.17;26.13;;;9.90;99.90;;;;;;5051169;28;20438;-85
2023/04/29 00:51:11;;;;;;;42.13;25.52;;;9.90;99.90;;;;;;5057566;28;20047;-85
2023/04/29 00:53:37;;;;;;;43.00;25.00;;;9.90;99.90;;;;;;5056200;28;20115;-86
2023/04/29 00:56:06;;;;;;;42.55;26.52;;;9.80;99.90;;;;;;5056008;28;20040;-85
2023/04/29 00:58:34;;;;;;;40.17;24.83;;;9.80;99.90;;;;;;5056900;28;20453;-85
2023/04/29 01:01:02;;;;;;;44.70;25.40;;;9.80;99.90;;;;;;5051127;28;20144;-85
2023/04/29 01:03:31;;;;;;;41.88;25.13;;;9.80;99.90;;;;;;5057361;28;20052;-86
2023/04/29 01:06:24;;;;;;;41.22;23.60;;;9.80;99.90;;;;;;5057306;28;20087;-85
2023/04/29 01:09:19;;;;;;;44.80;23.65;;;9.80;99.90;;;;;;5049522;28;20048;-85
2023/04/29 01:12:05;;;;;;;;;;;9.80;99.90;;;;;;5052628;28;20063;-85
2023/04/29 01:14:33;;;;;;;37.50;21.65;;;9.80;99.90;;;;;;5052812;28;19916;-85
2023/04/29 01:17:01;;;;;;;39.28;21.42;;;9.80;99.90;;;;;;5050719;28;20040;-86
2023/04/29 01:19:45;;;;;;;32.97;21.35;;;9.80;99.90;;;;;;5057177;28;20098;-85
2023/04/29 01:22:13;;;;;;;33.80;21.02;;;9.80;99.90;;;;;;5056051;28;20116;-86
2023/04/29 01:24:39;;;;;;;37.35;20.42;;;9.80;99.90;;;;;;5051388;28;20037;-85
2023/04/29 01:27:28;;;;;;;32.78;19.90;;;9.80;99.90;;;;;;5054887;28;20434;-85
2023/04/29 01:30:11;;;;;;;30.92;18.83;;;9.70;99.90;;;;;;5057780;28;20278;-85
2023/04/29 01:32:59;;;;;;;34.53;18.55;;;9.70;99.90;;;;;;5056341;28;20471;-85
2023/04/29 01:36:00;;;;;;;34.28;18.80;;;9.70;99.90;;;;;;5054526;28;20033;-85
2023/04/29 01:38:43;;;;;;;32.20;19.35;;;9.70;99.90;;;;;;5022424;28;20102;-85
2023/04/29 01:41:12;;;;;;;33.88;18.70;;;9.70;99.90;;;;;;5056046;28;20077;-85
2023/04/29 01:43:38;;;;;;;29.20;17.90;;;9.60;99.90;;;;;;5049445;28;20396;-86
2023/04/29 01:46:08;;;;;;;35.00;18.02;;;9.70;99.90;;;;;;5050459;28;20033;-85
2023/04/29 01:48:35;;;;;;;31.85;19.10;;;9.70;99.90;;;;;;5055773;28;20048;-85
2023/04/29 01:51:01;;;;;;;29.58;18.20;;;9.60;99.90;;;;;;5056577;28;20074;-85
2023/04/29 01:53:27;;;;;;;34.25;18.45;;;9.60;99.90;;;;;;5055321;28;20096;-85
2023/04/29 01:55:53;;;;;;;32.70;18.60;;;9.60;99.90;;;;;;5050036;28;20028;-85
2023/04/29 01:58:18;;;;;;;30.45;18.48;;;9.60;99.90;;;;;;5049116;28;20527;-84
2023/04/29 02:00:44;;;;;;;30.17;17.48;;;9.60;99.90;;;;;;5049883;28;20124;-85
2023/04/29 02:03:10;;;;;;;30.58;18.10;;;9.60;99.90;;;;;;5050265;28;20033;-85
2023/04/29 02:05:36;;;;;;;31.73;17.92;;;9.60;99.90;;;;;;5050011;28;20028;-85
2023/04/29 02:08:02;;;;;;;32.42;17.58;;;9.60;99.90;;;;;;5055479;28;20469;-85
2023/04/29 02:10:28;;;;;;;30.92;16.75;;;9.60;99.90;;;;;;5055681;28;20041;-84
2023/04/29 02:12:53;;;;;;;39.40;19.02;;;9.60;99.90;;;;;;5060695;28;20029;-85
2023/04/29 02:15:20;;;;;;;32.22;18.45;;;9.60;99.90;;;;;;5055173;28;20044;-85
2023/04/29 02:17:45;;;;;;;31.90;17.83;;;9.60;99.90;;;;;;5055249;28;20362;-85
2023/04/29 02:20:11;;;;;;;34.97;19.40;;;9.60;99.90;;;;;;5054511;28;20040;-86
2023/04/29 02:22:38;;;;;;;32.97;18.70;;;9.60;99.90;;;;;;5050735;28;20051;-85
2023/04/29 02:25:05;;;;;;;31.67;18.10;;;9.50;99.90;;;;;;5050095;28;20036;-86
2023/04/29 02:27:31;;;;;;;34.58;19.30;;;9.50;99.90;;;;;;5055991;28;20033;-86
2023/04/29 02:29:56;;;;;;;30.30;17.80;;;9.50;99.90;;;;;;5048686;28;20043;-85
2023/04/29 02:32:22;;;;;;;30.45;18.58;;;9.50;99.90;;;;;;5055221;28;20049;-86
2023/04/29 02:34:48;;;;;;;28.17;17.27;;;9.50;99.90;;;;;;5055299;28;20075;-85
2023/04/29 02:37:14;;;;;;;27.48;16.42;;;9.50;99.90;;;;;;5050307;28;20501;-86
2023/04/29 02:39:40;;;;;;;30.40;18.08;;;9.50;99.90;;;;;;5049064;28;20037;-85
2023/04/29 02:42:06;;;;;;;31.75;18.23;;;9.50;99.90;;;;;;5054874;28;20546;-86
2023/04/29 02:44:32;;;;;;;36.78;18.65;;;9.50;99.90;;;;;;5054455;28;20056;-86
2023/04/29 02:46:58;;;;;;;31.90;18.00;;;9.40;99.90;;;;;;5037264;28;20029;-85
2023/04/29 02:49:23;;;;;;;35.80;19.08;;;9.40;99.90;;;;;;5053387;28;20128;-85
2023/04/29 02:51:49;;;;;;;32.03;18.52;;;9.40;99.90;;;;;;5053587;28;20028;-85
2023/04/29 02:54:17;;;;;;;29.10;16.55;;;9.40;99.90;;;;;;5053445;28;20487;-85
2023/04/29 02:56:43;;;;;;;30.88;18.70;;;9.40;99.90;;;;;;5052156;28;20399;-85
2023/04/29 02:59:09;;;;;;;30.02;17.38;;;9.30;99.90;;;;;;5064797;28;20044;-85
2023/04/29 03:01:35;;;;;;;31.02;17.80;;;9.30;99.90;;;;;;5059855;28;20044;-86
2023/04/29 03:04:00;;;;;;;31.05;17.20;;;9.40;99.90;;;;;;5056199;28;20041;-85
2023/04/29 03:06:26;;;;;;;33.25;17.13;;;9.30;99.90;;;;;;5050061;28;20037;-85
2023/04/29 03:08:52;;;;;;;29.52;16.52;;;9.30;99.90;;;;;;5049412;28;20052;-85
2023/04/29 03:11:19;;;;;;;31.33;17.70;;;9.30;99.90;;;;;;5056822;28;20124;-85
2023/04/29 03:13:44;;;;;;;31.02;17.17;;;9.30;99.90;;;;;;5056723;28;20545;-85
2023/04/29 03:16:13;;;;;;;33.28;17.75;;;9.30;99.90;;;;;;5050528;28;20057;-85
2023/04/29 03:18:39;;;;;;;34.03;17.42;;;9.30;99.90;;;;;;5064423;28;20050;-86
2023/04/29 03:21:05;;;;;;;29.05;16.67;;;9.20;99.90;;;;;;5058897;28;20053;-85
2023/04/29 03:23:30;;;;;;;35.10;18.52;;;9.30;99.90;;;;;;5056518;28;20380;-85
2023/04/29 03:25:56;;;;;;;28.17;17.65;;;9.20;99.90;;;;;;5052868;28;20388;-85
2023/04/29 03:28:22;;;;;;;29.33;17.50;;;9.30;99.90;;;;;;5054853;28;20037;-85
2023/04/29 03:30:48;;;;;;;28.90;17.00;;;9.30;99.90;;;;;;5054849;28;20273;-85
2023/04/29 03:33:14;;;;;;;27.73;16.67;;;9.20;99.90;;;;;;5053933;28;20383;-85
2023/04/29 03:35:39;;;;;;;29.88;17.50;;;9.30;99.90;;;;;;5058429;28;20040;-85
2023/04/29 03:38:05;;;;;;;29.83;17.58;;;9.20;99.90;;;;;;5057363;28;20036;-85
2023/04/29 03:40:31;;;;;;;28.90;17.13;;;9.20;99.90;;;;;;5060245;28;20511;-85
2023/04/29 03:42:56;;;;;;;25.48;16.23;;;9.20;99.90;;;;;;5059605;28;20043;-85
2023/04/29 03:45:22;;;;;;;27.42;15.65;;;9.20;99.90;;;;;;5058884;28;20048;-85
2023/04/29 03:47:48;;;;;;;28.77;15.05;;;9.20;99.90;;;;;;5051044;28;20090;-86
2023/04/29 03:50:13;;;;;;;28.70;15.57;;;9.20;99.90;;;;;;5050751;28;20403;-85
2023/04/29 03:52:39;;;;;;;23.92;14.65;;;9.20;99.90;;;;;;5050534;28;20399;-86
2023/04/29 03:55:05;;;;;;;25.45;14.68;;;9.20;99.90;;;;;;5052398;28;20040;-86
2023/04/29 03:57:30;;;;;;;21.88;13.88;;;9.20;99.90;;;;;;5050840;28;20052;-86
2023/04/29 03:59:56;;;;;;;25.13;14.57;;;9.20;99.90;;;;;;5056042;28;20053;-86
2023/04/29 04:02:22;;;;;;;29.95;14.35;;;9.20;99.90;;;;;;5063528;28;20442;-86
2023/04/29 04:04:47;;;;;;;23.70;14.70;;;9.20;99.90;;;;;;5058618;28;20044;-85
2023/04/29 04:07:13;;;;;;;23.90;13.60;;;9.20;99.90;;;;;;5057594;28;20033;-85
2023/04/29 04:09:39;;;;;;;24.25;13.35;;;9.20;99.90;;;;;;5058458;28;20056;-86
2023/04/29 04:12:05;;;;;;;23.20;13.63;;;9.20;99.90;;;;;;5050433;28;20107;-85
2023/04/29 04:14:31;;;;;;;24.25;14.52;;;9.20;99.90;;;;;;5056705;28;20040;-86
2023/04/29 04:16:56;;;;;;;26.33;13.77;;;9.20;99.90;;;;;;5054362;28;20048;-86
2023/04/29 04:19:22;;;;;;;25.20;12.90;;;9.20;99.90;;;;;;5060282;28;20045;-85
2023/04/29 04:21:47;;;;;;;24.65;12.60;;;9.20;99.90;;;;;;5056004;28;20384;-86
2023/04/29 04:24:13;;;;;;;22.67;12.48;;;9.20;99.90;;;;;;5063899;28;20071;-86
2023/04/29 04:26:40;;;;;;;25.00;13.25;;;9.20;99.90;;;;;;5050383;28;20041;-86
2023/04/29 04:29:05;;;;;;;21.83;12.70;;;9.20;99.90;;;;;;5051598;28;20469;-86
2023/04/29 04:31:31;;;;;;;25.95;13.13;;;9.20;99.90;;;;;;5057134;28;20179;-86
2023/04/29 04:33:58;;;;;;;24.80;12.98;;;9.10;99.90;;;;;;5054871;28;20063;-86
2023/04/29 04:36:24;;;;;;;23.05;13.07;;;9.20;99.90;;;;;;5058223;28;20106;-86
2023/04/29 04:38:50;;;;;;;20.92;12.70;;;9.10;99.90;;;;;;5051208;28;20159;-85
2023/04/29 04:41:16;;;;;;;24.67;12.23;;;9.10;99.90;;;;;;5052825;28;20546;-86
2023/04/29 04:43:42;;;;;;;27.40;13.32;;;9.20;99.90;;;;;;5051210;28;20041;-85
2023/04/29 04:46:11;;;;;;;23.58;13.52;;;9.10;99.90;;;;;;5059628;28;20059;-86
2023/04/29 04:48:37;;;;;;;23.88;12.65;;;9.20;99.90;;;;;;5052211;28;20071;-86
2023/04/29 04:51:10;;;;;;;25.65;12.73;;;9.10;99.90;;;;;;5056481;28;20141;-86
2023/04/29 04:53:36;;;;;;;25.30;12.55;;;9.10;99.90;;;;;;5057035;28;20064;-86
2023/04/29 04:56:02;;;;;;;25.70;13.35;;;9.10;99.90;;;;;;5050675;28;20095;-85
2023/04/29 04:58:27;;;;;;;26.75;13.32;;;9.10;99.90;;;;;;5051226;28;20048;-86
2023/04/29 05:00:53;;;;;;;18.55;11.85;;;9.30;99.90;;;;;;5059203;28;20055;-85
2023/04/29 05:03:18;;;;;;;26.13;13.73;;;9.10;99.90;;;;;;5056427;28;20048;-86
2023/04/29 05:05:44;;;;;;;25.23;13.95;;;9.10;99.90;;;;;;5050542;28;20407;-86
2023/04/29 05:08:10;;;;;;;25.55;12.65;;;9.10;99.90;;;;;;5053225;28;20387;-86
2023/04/29 05:10:36;;;;;;;28.92;13.30;;;9.10;99.90;;;;;;5059380;28;20028;-86
2023/04/29 05:13:01;;;;;;;24.75;13.95;;;9.20;99.90;;;;;;5054797;28;20044;-86
2023/04/29 05:15:27;;;;;;;23.80;12.55;;;9.20;99.90;;;;;;5055646;28;20044;-86
2023/04/29 05:17:53;;;;;;;22.65;12.95;;;9.10;99.90;;;;;;5049688;28;20041;-86
2023/04/29 05:20:19;;;;;;;22.23;11.52;;;9.20;99.90;;;;;;5052208;28;20036;-86
2023/04/29 05:22:45;;;;;;;22.45;12.52;;;9.20;99.90;;;;;;5054035;28;20583;-86
2023/04/29 05:25:11;;;;;;;25.63;13.30;;;9.20;99.90;;;;;;5056440;28;20120;-86
2023/04/29 05:27:36;;;;;;;20.70;12.80;;;9.20;99.90;;;;;;5054098;28;20052;-86
2023/04/29 05:30:02;;;;;;;27.10;12.43;;;9.20;99.90;;;;;;5054036;28;20370;-86
2023/04/29 05:32:28;;;;;;;21.65;11.82;;;9.20;99.90;;;;;;5087568;28;20048;-86
2023/04/29 05:34:53;;;;;;;24.33;12.35;;;9.20;99.90;;;;;;5049962;28;20036;-86
2023/04/29 05:37:19;;;;;;;24.40;12.18;;;9.20;99.90;;;;;;5050313;28;20073;-86
2023/04/29 05:39:44;;;;;;;18.92;11.70;;;9.20;99.90;;;;;;5050312;28;20036;-86
2023/04/29 05:42:10;;;;;;;21.85;11.73;;;9.50;99.90;;;;;;5050510;28;20434;-86
2023/04/29 05:44:36;;;;;;;21.48;12.40;;;9.20;99.90;;;;;;5050274;28;20060;-86
2023/04/29 05:47:01;;;;;;;23.77;12.45;;;9.20;99.90;;;;;;5049909;28;20036;-86
2023/04/29 05:49:27;;;;;;;19.65;11.77;;;9.20;99.90;;;;;;5060170;28;20078;-86
2023/04/29 05:51:52;;;;;;;22.13;12.25;;;9.30;99.90;;;;;;5055590;28;20045;-86
2023/04/29 05:54:18;;;;;;;18.63;11.13;;;9.30;99.90;;;;;;5055908;28;20076;-86
2023/04/29 05:56:44;;;;;;;21.58;12.82;;;9.30;99.90;;;;;;5063925;28;20086;-86
2023/04/29 05:59:09;;;;;;;24.02;11.57;;;9.30;99.90;;;;;;5052987;28;20048;-86
2023/04/29 06:01:35;;;;;;;22.55;12.63;;;9.30;99.90;;;;;;5050713;28;20063;-86
2023/04/29 06:04:00;;;;;;;22.63;11.50;;;9.30;99.90;;;;;;5050370;28;20056;-86
2023/04/29 06:06:26;;;;;;;18.90;11.30;;;9.40;99.90;;;;;;5050805;28;20036;-86
2023/04/29 06:08:52;;;;;;;19.65;11.57;;;9.40;99.90;;;;;;5057152;28;20502;-86
2023/04/29 06:11:18;;;;;;;20.02;11.90;;;9.40;99.90;;;;;;5057386;28;20509;-86
2023/04/29 06:13:43;;;;;;;18.25;10.55;;;9.50;99.90;;;;;;5059284;28;20534;-86
2023/04/29 06:16:10;;;;;;;16.95;11.63;;;9.50;99.90;;;;;;5051020;28;20040;-86
2023/04/29 06:18:37;;;;;;;17.15;10.65;;;10.10;99.90;;;;;;5049181;28;20036;-86
2023/04/29 06:21:02;;;;;;;18.92;9.32;;;9.50;99.90;;;;;;5053226;28;20076;-86
2023/04/29 06:23:28;;;;;;;21.33;11.35;;;9.50;99.90;;;;;;5050265;28;20126;-86
2023/04/29 06:25:56;;;;;;;20.35;11.82;;;9.60;99.90;;;;;;5060177;28;20040;-86
2023/04/29 06:28:22;;;;;;;20.65;10.27;;;9.60;99.90;;;;;;5053245;28;20102;-85
2023/04/29 06:30:49;;;;;;;17.30;9.77;;;9.70;99.90;;;;;;5050170;28;20091;-86
2023/04/29 06:33:14;;;;;;;17.50;9.90;;;9.70;99.90;;;;;;5049456;28;20037;-86
2023/04/29 06:35:40;;;;;;;14.80;9.73;;;9.80;99.90;;;;;;5052739;28;20067;-86
2023/04/29 06:38:07;;;;;;;17.20;9.20;;;9.80;99.90;;;;;;5049551;28;20183;-86
2023/04/29 06:40:33;;;;;;;19.58;8.88;;;9.90;99.90;;;;;;5052945;28;20552;-85
2023/04/29 06:42:59;;;;;;;15.88;10.25;;;9.90;99.90;;;;;;5056053;28;20032;-86
2023/04/29 06:45:24;;;;;;;17.85;9.15;;;9.90;99.90;;;;;;5048562;28;20047;-85
2023/04/29 06:47:50;;;;;;;14.93;8.50;;;9.90;99.90;;;;;;5049023;28;20033;-86
2023/04/29 06:50:16;;;;;;;17.98;8.45;;;9.90;99.90;;;;;;5053910;28;20041;-86
2023/04/29 06:52:41;;;;;;;18.27;8.32;;;10.00;99.90;;;;;;5053849;28;20044;-86
2023/04/29 06:55:07;;;;;;;16.20;8.93;;;10.00;99.90;;;;;;5049908;28;20522;-86
2023/04/29 06:57:33;;;;;;;15.77;8.15;;;10.10;99.90;;;;;;5057652;28;20045;-87
2023/04/29 06:59:59;;;;;;;18.23;8.77;;;10.10;99.90;;;;;;5059548;28;20052;-86
2023/04/29 07:02:24;;;;;;;13.20;8.55;;;10.10;99.90;;;;;;5049653;28;20366;-87
2023/04/29 07:04:51;;;;;;;15.70;8.48;;;10.10;99.90;;;;;;5054829;28;20037;-87
2023/04/29 07:07:17;;;;;;;14.45;7.70;;;10.00;99.90;;;;;;5049707;28;20040;-87
2023/04/29 07:09:42;;;;;;;14.98;8.13;;;10.10;99.90;;;;;;5053717;28;20048;-87
2023/04/29 07:12:08;;;;;;;14.95;7.97;;;10.10;99.90;;;;;;5049934;28;20322;-86
2023/04/29 07:14:34;;;;;;;12.95;6.93;;;10.10;99.90;;;;;;5054544;28;20509;-87
2023/04/29 07:17:00;;;;;;;14.68;8.40;;;10.10;99.90;;;;;;5048544;28;20342;-87
2023/04/29 07:19:26;;;;;;;12.93;8.05;;;10.10;99.90;;;;;;5054664;28;20432;-86
2023/04/29 07:21:51;;;;;;;13.20;7.72;;;10.10;99.90;;;;;;5059429;28;20342;-86
2023/04/29 07:24:17;;;;;;;16.70;8.52;;;10.20;99.90;;;;;;5051470;28;20041;-87
2023/04/29 07:26:44;;;;;;;21.70;8.25;;;10.20;99.90;;;;;;5049886;28;20072;-87
2023/04/29 07:29:09;;;;;;;14.25;7.80;;;10.30;99.90;;;;;;5049695;28;20025;-87
2023/04/29 07:31:35;;;;;;;14.82;8.93;;;10.40;99.90;;;;;;5049386;28;20041;-87
2023/04/29 07:34:01;;;;;;;14.38;8.10;;;10.40;99.90;;;;;;5048871;28;20045;-87
2023/04/29 07:36:27;;;;;;;14.48;8.27;;;10.50;99.90;;;;;;5055638;28;20078;-87
2023/04/29 07:38:53;;;;;;;15.40;8.00;;;10.50;99.90;;;;;;5057107;28;20116;-87
2023/04/29 07:41:19;;;;;;;13.82;8.20;;;10.60;99.90;;;;;;5062064;28;20041;-87
2023/04/29 07:43:45;;;;;;;14.43;8.45;;;10.60;99.90;;;;;;5061188;28;20064;-87
2023/04/29 07:46:11;;;;;;;13.07;8.00;;;10.60;99.90;;;;;;5052056;28;20040;-87
2023/04/29 07:48:38;;;;;;;20.42;9.02;;;10.60;99.90;;;;;;5059156;28;20040;-87
2023/04/29 07:51:05;;;;;;;17.65;8.45;;;10.70;99.90;;;;;;5051094;28;20044;-87
2023/04/29 07:53:31;;;;;;;15.13;8.48;;;10.70;99.90;;;;;;5053082;28;20075;-86
2023/04/29 07:55:56;;;;;;;16.05;9.50;;;10.80;99.90;;;;;;5055850;28;20231;-87
2023/04/29 07:58:22;;;;;;;17.67;7.47;;;10.90;99.90;;;;;;5055731;28;20076;-87
2023/04/29 08:00:48;;;;;;;12.80;7.53;;;10.90;99.90;;;;;;5052427;28;20476;-87
2023/04/29 08:03:13;;;;;;;13.50;8.25;;;11.00;99.90;;;;;;5057151;28;20039;-87
2023/04/29 08:05:39;;;;;;;18.23;8.90;;;11.00;99.90;;;;;;5062548;28;20120;-86
2023/04/29 08:08:05;;;;;;;13.80;7.65;;;11.10;99.90;;;;;;5052708;28;20037;-86
2023/04/29 08:10:31;;;;;;;16.88;8.13;;;11.20;99.90;;;;;;5057220;28;20116;-87
2023/04/29 08:12:57;;;;;;;16.50;8.80;;;11.30;99.90;;;;;;5053063;28;20037;-87
2023/04/29 08:15:22;;;;;;;16.95;8.95;;;11.40;99.90;;;;;;5061032;28;20048;-86
2023/04/29 08:17:48;;;;;;;16.13;8.50;;;11.50;99.90;;;;;;5055597;28;20116;-87
2023/04/29 08:20:14;;;;;;;14.98;8.20;;;11.50;99.90;;;;;;5052271;28;20433;-86
2023/04/29 08:22:40;;;;;;;13.90;7.85;;;11.50;99.90;;;;;;5052023;28;20036;-87
2023/04/29 08:25:06;;;;;;;12.45;6.95;;;11.60;99.90;;;;;;5050802;28;20033;-87
2023/04/29 08:27:31;;;;;;;14.20;6.68;;;11.70;99.90;;;;;;5057239;28;20045;-87
2023/04/29 08:29:57;;;;;;;10.98;6.53;;;11.80;99.90;;;;;;5056515;28;20060;-88
2023/04/29 08:32:23;;;;;;;11.27;6.28;;;11.80;99.90;;;;;;5056394;28;20499;-87
2023/04/29 08:34:48;;;;;;;11.75;6.78;;;11.80;99.90;;;;;;5052016;28;20060;-87
2023/04/29 08:37:15;;;;;;;11.00;6.88;;;11.90;99.90;;;;;;5055330;28;20041;-87
2023/04/29 08:39:46;;;;;;;14.57;7.00;;;12.40;99.90;;;;;;5063122;28;20075;-87
2023/04/29 08:42:11;;;;;;;14.50;6.65;;;12.20;99.90;;;;;;5053083;28;20045;-88
2023/04/29 08:44:39;;;;;;;12.57;6.72;;;12.30;99.90;;;;;;5044717;28;20033;-87
2023/04/29 08:47:05;;;;;;;12.93;7.30;;;12.40;99.90;;;;;;5062298;28;20040;-87
2023/04/29 08:49:32;;;;;;;13.68;6.88;;;12.30;99.90;;;;;;5054127;28;20037;-88
2023/04/29 08:51:58;;;;;;;13.95;6.72;;;12.20;99.90;;;;;;5056899;28;20041;-88
2023/04/29 08:54:24;;;;;;;13.18;7.18;;;12.20;99.90;;;;;;5052402;28;20044;-88
2023/04/29 08:56:50;;;;;;;11.73;6.97;;;12.20;99.90;;;;;;5054796;28;20032;-87
2023/04/29 08:59:17;;;;;;;13.63;6.80;;;12.10;99.90;;;;;;5051459;28;20084;-87
2023/04/29 09:01:43;;;;;;;13.57;6.15;;;12.20;99.90;;;;;;5047558;28;20112;-88
2023/04/29 09:04:24;;;;;;;12.07;7.22;;;12.30;99.90;;;;;;5052020;28;20041;-87
2023/04/29 09:06:51;;;;;;;12.60;6.55;;;12.50;99.90;;;;;;5052260;28;20040;-87
2023/04/29 09:09:18;;;;;;;13.13;6.30;;;12.60;99.90;;;;;;5054583;28;20049;-88
2023/04/29 09:11:43;;;;;;;11.63;6.85;;;12.80;99.90;;;;;;5049870;28;20074;-88
2023/04/29 09:14:09;;;;;;;12.88;6.60;;;13.00;99.90;;;;;;5050406;28;20041;-88
2023/04/29 09:16:37;;;;;;;11.32;6.60;;;13.40;99.90;;;;;;5051031;28;20391;-88
2023/04/29 09:19:02;;;;;;;15.23;6.65;;;13.30;99.90;;;;;;5050579;28;20484;-88
2023/04/29 09:21:32;;;;;;;17.45;7.00;;;13.30;99.90;;;;;;5055285;28;20123;-88
2023/04/29 09:23:59;;;;;;;10.38;5.80;;;13.50;99.90;;;;;;5051720;28;20028;-89
2023/04/29 09:26:25;;;;;;;10.30;6.80;;;13.60;99.90;;;;;;5054543;28;20041;-88
2023/04/29 09:29:17;;;;;;;15.05;7.05;;;13.80;99.90;;;;;;5049889;28;20041;-88
2023/04/29 09:31:43;;;;;;;15.25;6.88;;;14.00;99.90;;;;;;5051437;28;20063;-88
2023/04/29 09:34:10;;;;;;;14.38;6.70;;;14.00;99.90;;;;;;5056891;28;20038;-88
2023/04/29 09:36:46;;;;;;;15.27;6.60;;;14.30;99.90;;;;;;5057792;28;20037;-89
2023/04/29 09:39:19;;;;;;;10.60;6.05;;;14.10;99.90;;;;;;5057536;28;20036;-88
2023/04/29 09:41:54;;;;;;;10.57;6.20;;;14.00;99.90;;;;;;5059855;28;20060;-89
2023/04/29 09:44:32;;;;;;;11.02;5.97;;;14.00;99.90;;;;;;5054478;28;20391;-88
2023/04/29 09:47:01;;;;;;;14.60;6.20;;;13.80;99.90;;;;;;5058285;28;20078;-88
2023/04/29 09:49:28;;;;;;;14.43;5.85;;;13.80;99.90;;;;;;5051113;28;20040;-88
2023/04/29 09:51:55;;;;;;;11.55;5.85;;;13.80;99.90;;;;;;5050312;28;20107;-88
2023/04/29 09:54:22;;;;;;;10.43;5.47;;;13.90;99.90;;;;;;5050650;28;20053;-88
2023/04/29 09:56:50;;;;;;;12.02;5.25;;;13.90;99.90;;;;;;5053206;28;20049;-89
2023/04/29 09:59:17;;;;;;;11.23;5.57;;;14.00;99.90;;;;;;5049828;28;20055;-88
2023/04/29 10:01:43;;;;;;;10.82;4.88;;;14.20;99.90;;;;;;5059960;28;20510;-88
2023/04/29 10:04:10;;;;;;;10.68;5.45;;;14.20;99.90;;;;;;5053748;28;20036;-88
2023/04/29 10:06:39;;;;;;;8.27;5.75;;;14.40;99.90;;;;;;5048979;28;20041;-88
2023/04/29 10:09:07;;;;;;;9.80;4.97;;;14.50;99.90;;;;;;5048348;28;20037;-88
2023/04/29 10:11:33;;;;;;;9.10;5.55;;;14.60;99.90;;;;;;5053989;28;20036;-89
2023/04/29 10:14:00;;;;;;;10.63;5.43;;;14.70;99.90;;;;;;5050128;28;20044;-88
2023/04/29 10:16:30;;;;;;;10.82;5.38;;;15.00;99.90;;;;;;5049185;28;20076;-88
2023/04/29 10:18:59;;;;;;;10.73;4.72;;;15.00;99.90;;;;;;5050301;28;20040;-88
2023/04/29 10:21:32;;;;;;;11.48;5.53;;;15.10;99.90;;;;;;5049627;28;20090;-87
2023/04/29 10:24:00;;;;;;;10.27;5.50;;;15.20;99.90;;;;;;5048264;28;20040;-88
2023/04/29 10:26:28;;;;;;;12.70;5.30;;;15.30;99.90;;;;;;5050234;28;20116;-88
2023/04/29 10:28:58;;;;;;;13.05;5.78;;;15.30;99.90;;;;;;5055112;28;20045;-88
2023/04/29 10:31:29;;;;;;;11.50;5.25;;;15.40;99.90;;;;;;5050099;28;20048;-88
2023/04/29 10:34:00;;;;;;;11.60;5.63;;;15.40;99.90;;;;;;5054936;28;20032;-88
2023/04/29 10:36:29;;;;;;;9.20;5.47;;;15.40;99.90;;;;;;5064384;28;20513;-88
2023/04/29 10:38:58;;;;;;;7.75;5.18;;;15.40;99.90;;;;;;5061187;28;20041;-88
2023/04/29 10:41:47;;;;;;;12.57;5.30;;;15.40;99.90;;;;;;5055973;28;20037;-88
2023/04/29 10:44:13;;;;;;;9.10;5.28;;;15.50;99.90;;;;;;5051725;28;20151;-89
2023/04/29 10:46:39;;;;;;;8.85;4.85;;;15.60;99.90;;;;;;5046662;28;20523;-88
2023/04/29 10:49:06;;;;;;;11.18;5.22;;;15.70;99.90;;;;;;5056329;28;20041;-87
2023/04/29 10:51:43;;;;;;;10.30;5.07;;;15.80;99.90;;;;;;5055845;28;20395;-89
2023/04/29 10:54:16;;;;;;;10.50;4.80;;;15.90;99.90;;;;;;5055197;28;20049;-89
2023/04/29 10:56:52;;;;;;;9.82;4.88;;;16.00;99.90;;;;;;5032798;28;20044;-87
2023/04/29 10:59:28;;;;;;;8.10;4.00;;;16.00;99.90;;;;;;5049664;28;20100;-88
2023/04/29 11:01:53;;;;;;;7.22;4.13;;;16.10;99.90;;;;;;5049404;28;20052;-88
2023/04/29 11:04:20;;;;;;;9.75;4.70;;;16.10;99.90;;;;;;5049833;28;20045;-88
2023/04/29 11:07:01;;;;;;;8.43;5.30;;;16.10;99.90;;;;;;5050034;28;20108;-88
2023/04/29 11:09:29;;;;;;;12.80;5.53;;;16.10;99.90;;;;;;5056775;28;20044;-88
2023/04/29 11:11:57;;;;;;;9.85;5.03;;;16.10;99.90;;;;;;5058500;28;20033;-88
2023/04/29 11:14:28;;;;;;;11.10;5.68;;;16.20;99.90;;;;;;5053732;28;20253;-87
2023/04/29 11:17:02;;;;;;;9.70;5.35;;;16.50;99.90;;;;;;5053969;28;20124;-87
2023/04/29 11:19:36;;;;;;;11.10;5.13;;;16.50;99.90;;;;;;5064236;28;20033;-88
2023/04/29 11:22:11;;;;;;;10.20;5.55;;;16.70;99.90;;;;;;5051994;28;20041;-88
2023/04/29 11:24:52;;;;;;;8.35;4.38;;;16.80;99.90;;;;;;5052843;28;20061;-89
2023/04/29 11:27:19;;;;;;;8.85;5.00;;;16.80;99.90;;;;;;5053317;28;20045;-88
2023/04/29 11:29:48;;;;;;;8.25;4.07;;;16.80;99.90;;;;;;5061835;28;20046;-88
2023/04/29 11:32:14;;;;;;;7.53;4.25;;;16.80;99.90;;;;;;5051926;28;20032;-88
2023/04/29 11:34:40;;;;;;;7.00;3.50;;;16.80;99.90;;;;;;5059927;28;20051;-88
2023/04/29 11:37:05;;;;;;;6.25;3.78;;;16.80;99.90;;;;;;5051948;28;20029;-88
2023/04/29 11:39:35;;;;;;;8.35;4.20;;;16.90;99.90;;;;;;5052567;28;20041;-88
2023/04/29 11:42:05;;;;;;;7.30;3.33;;;17.00;99.90;;;;;;5058371;28;20056;-88
2023/04/29 11:44:34;;;;;;;7.32;3.10;;;17.10;99.90;;;;;;5092821;28;20415;-89
2023/04/29 11:47:04;;;;;;;7.75;2.55;;;17.20;99.90;;;;;;5060616;28;20037;-89
2023/04/29 11:49:31;;;;;;;7.97;2.60;;;17.20;99.90;;;;;;5063055;28;20041;-88
2023/04/29 11:51:57;;;;;;;6.45;2.25;;;17.30;99.90;;;;;;5053246;28;20579;-88
2023/04/29 11:54:28;;;;;;;6.97;2.55;;;17.30;99.90;;;;;;5051723;28;20076;-89
2023/04/29 11:56:56;;;;;;;5.00;1.85;;;17.30;99.90;;;;;;5061157;28;20068;-87
2023/04/29 11:59:22;;;;;;;6.97;2.10;;;17.30;99.90;;;;;;5052282;28;20056;-88
2023/04/29 12:01:51;;;;;;;4.22;2.08;;;17.30;99.90;;;;;;5054041;28;20124;-87
2023/04/29 12:04:18;;;;;;;4.20;1.77;;;17.50;99.90;;;;;;5051496;28;20037;-88
2023/04/29 12:06:44;;;;;;;5.03;2.10;;;17.30;99.90;;;;;;5054966;28;20068;-88
2023/04/29 12:09:09;;;;;;;3.30;1.83;;;17.40;99.90;;;;;;5055156;28;20075;-88
2023/04/29 12:11:38;;;;;;;4.60;2.58;;;17.40;99.90;;;;;;5059138;28;20120;-88
2023/04/29 12:14:07;;;;;;;5.40;2.00;;;17.40;99.10;;;;;;5058134;28;20076;-88
2023/04/29 12:16:34;;;;;;;3.65;2.03;;;17.40;99.90;;;;;;5051661;28;20375;-88
2023/04/29 12:19:00;;;;;;;4.97;1.73;;;17.50;99.90;;;;;;5060361;28;20037;-87
2023/04/29 12:21:28;;;;;;;4.63;1.90;;;17.70;99.90;;;;;;5061768;28;20397;-87
2023/04/29 12:23:58;;;;;;;3.83;2.03;;;17.70;99.90;;;;;;5065006;28;20063;-88
2023/04/29 12:26:27;;;;;;;6.70;2.58;;;17.70;97.20;;;;;;5058328;28;20037;-88
2023/04/29 12:28:58;;;;;;;5.25;2.70;;;17.70;99.90;;;;;;5054324;28;20037;-88
2023/04/29 12:31:30;;;;;;;4.47;2.15;;;17.80;99.90;;;;;;5058762;28;20181;-88
2023/04/29 12:33:56;;;;;;;4.45;2.20;;;17.80;99.90;;;;;;5053437;28;20029;-88
2023/04/29 12:36:22;;;;;;;6.95;2.00;;;17.90;99.90;;;;;;5061132;28;20036;-88
2023/04/29 12:38:48;;;;;;;6.70;2.20;;;18.00;95.80;;;;;;5058198;28;20044;-88